Time;durP1;ratioP1;P1;durP2;ratioP2;P2;SDS_P1;SDS_P2;PMS_P1;PMS_P2;Temp;Humidity;BMP_temperature;BMP_pressure;BME280_temperature;BME280_humidity;BME280_pressure;Samples;Min_cycle;Max_cycle;Signal;HPM_P1;HPM_P2
2022/04/21 00:00:18;;;;;;;7.53;3.40;;;9.40;65.30;;;;;;6255657;22;20000;-86
2022/04/21 00:02:44;;;;;;;5.65;3.10;;;9.40;65.10;;;;;;6257358;22;20504;-87
2022/04/21 00:05:11;;;;;;;6.28;3.15;;;9.50;65.10;;;;;;6252918;23;20000;-85
2022/04/21 00:07:37;;;;;;;5.20;2.88;;;9.40;65.70;;;;;;6248654;23;20007;-86
2022/04/21 00:10:07;;;;;;;3.58;2.75;;;9.40;66.20;;;;;;6249306;23;20004;-86
2022/04/21 00:12:34;;;;;;;5.13;2.70;;;9.40;66.10;;;;;;6249086;22;20004;-87
2022/04/21 00:15:01;;;;;;;5.82;2.80;;;9.40;66.40;;;;;;6249178;22;20000;-86
2022/04/21 00:17:29;;;;;;;3.63;2.50;;;9.30;66.80;;;;;;6247927;23;20495;-86
2022/04/21 00:19:55;;;;;;;6.07;3.15;;;9.30;67.20;;;;;;6247252;23;20058;-86
2022/04/21 00:25:05;;;;;;;6.30;2.72;;;9.30;67.80;;;;;;6248161;23;20138;-87
2022/04/21 00:27:36;;;;;;;3.47;2.60;;;9.30;67.60;;;;;;6246292;23;20020;-86
2022/04/21 00:30:06;;;;;;;4.03;3.08;;;9.30;67.90;;;;;;6247823;22;20066;-85
2022/04/21 00:32:36;;;;;;;7.15;2.70;;;9.40;68.20;;;;;;6248897;22;20039;-86
2022/04/21 00:35:02;;;;;;;4.15;2.75;;;9.30;68.40;;;;;;6246287;23;20381;-87
2022/04/21 00:37:28;;;;;;;4.13;2.92;;;9.30;68.60;;;;;;6248700;22;20019;-86
2022/04/21 00:39:54;;;;;;;6.28;2.97;;;9.30;68.90;;;;;;6250132;22;19997;-85
2022/04/21 00:42:20;;;;;;;6.80;3.20;;;9.30;69.10;;;;;;6250492;22;20000;-86
2022/04/21 00:44:46;;;;;;;3.88;3.25;;;9.20;69.60;;;;;;6249206;23;20319;-86
2022/04/21 00:47:13;;;;;;;5.53;2.80;;;9.20;70.00;;;;;;6248525;23;20004;-86
2022/04/21 00:49:39;;;;;;;5.38;3.08;;;9.20;70.20;;;;;;6248278;23;20095;-87
2022/04/21 00:52:07;;;;;;;5.60;3.35;;;9.20;70.40;;;;;;6248675;22;20018;-86
2022/04/21 00:54:33;;;;;;;5.43;3.05;;;9.10;70.70;;;;;;6249200;22;20004;-85
2022/04/21 00:57:04;;;;;;;4.70;3.05;;;9.20;71.10;;;;;;6249902;22;20023;-86
2022/04/21 00:59:30;;;;;;;3.53;3.00;;;9.20;71.10;;;;;;6255622;22;20000;-86
2022/04/21 01:04:41;;;;;;;5.28;3.13;;;9.10;72.20;;;;;;6252847;23;20011;-86
2022/04/21 01:07:10;;;;;;;4.22;3.20;;;9.10;72.70;;;;;;6250898;23;20008;-86
2022/04/21 01:09:39;;;;;;;3.60;3.00;;;9.00;73.10;;;;;;6251350;22;20000;-86
2022/04/21 01:12:09;;;;;;;8.07;3.40;;;9.00;74.60;;;;;;6250451;22;20036;-85
2022/04/21 01:14:38;;;;;;;12.65;3.58;;;8.90;75.10;;;;;;6251988;22;20000;-86
2022/04/21 01:17:08;;;;;;;7.07;3.22;;;8.80;75.30;;;;;;6251925;23;20004;-85
2022/04/21 01:19:34;;;;;;;9.32;3.20;;;8.80;75.90;;;;;;6250567;23;20079;-86
2022/04/21 01:22:00;;;;;;;6.00;3.60;;;8.90;75.80;;;;;;6252569;22;19996;-86
2022/04/21 01:24:26;;;;;;;6.95;3.20;;;8.80;76.80;;;;;;6251141;23;20009;-86
2022/04/21 01:26:57;;;;;;;5.68;3.30;;;8.80;77.30;;;;;;6252219;22;20054;-84
2022/04/21 01:29:23;;;;;;;4.25;2.95;;;8.80;78.00;;;;;;6251585;22;19996;-86
2022/04/21 01:31:49;;;;;;;4.20;3.50;;;8.70;78.90;;;;;;6249848;23;20010;-86
2022/04/21 01:34:14;;;;;;;4.00;3.33;;;8.70;79.80;;;;;;6249872;23;20012;-83
2022/04/21 01:41:08;;;;;;;7.35;3.72;;;8.70;80.00;;;;;;6249921;23;20165;-85
2022/04/21 01:42:16;;;;;;;5.72;3.83;;;8.60;82.30;;;;;;6252117;23;20027;-86
2022/04/21 01:44:43;;;;;;;4.60;3.40;;;8.60;83.00;;;;;;6250990;22;20008;-86
2022/04/21 01:47:09;;;;;;;7.25;3.70;;;8.70;83.20;;;;;;6269083;22;20011;-88
2022/04/21 01:49:34;;;;;;;6.15;3.55;;;8.70;82.90;;;;;;6275284;22;19988;-89
2022/04/21 01:52:00;;;;;;;5.32;3.80;;;8.70;84.00;;;;;;6273649;22;20011;-89
2022/04/21 01:54:26;;;;;;;5.78;3.78;;;8.70;85.20;;;;;;6273884;22;20000;-87
2022/04/21 01:56:51;;;;;;;8.00;4.22;;;8.60;87.30;;;;;;6274500;22;20008;-91
2022/04/21 01:59:17;;;;;;;4.95;3.75;;;8.50;87.00;;;;;;6274657;22;20067;-89
2022/04/21 02:01:42;;;;;;;7.03;3.60;;;8.40;88.10;;;;;;6275134;22;20039;-89
2022/04/21 02:04:08;;;;;;;4.93;3.90;;;8.50;89.00;;;;;;6275221;22;20016;-85
2022/04/21 02:06:34;;;;;;;5.20;3.92;;;8.40;89.20;;;;;;6274948;22;19992;-91
2022/04/21 02:08:59;;;;;;;6.13;3.78;;;8.40;90.40;;;;;;6274497;22;20011;-88
2022/04/21 02:11:25;;;;;;;6.05;3.67;;;8.40;90.60;;;;;;6274010;22;19996;-86
2022/04/21 02:13:52;;;;;;;9.50;3.88;;;8.40;90.60;;;;;;6274386;22;19992;-86
2022/04/21 02:16:18;;;;;;;4.60;4.10;;;8.40;91.10;;;;;;6272863;22;20023;-86
2022/04/21 02:18:43;;;;;;;8.18;4.05;;;8.40;91.60;;;;;;6275383;22;19996;-86
2022/04/21 02:21:09;;;;;;;4.88;4.00;;;8.30;92.00;;;;;;6274628;22;19992;-86
2022/04/21 02:23:34;;;;;;;6.05;4.32;;;8.20;92.70;;;;;;6269997;22;20057;-84
2022/04/21 02:26:00;;;;;;;7.38;4.63;;;8.20;93.10;;;;;;6247861;22;20004;-86
2022/04/21 02:28:26;;;;;;;7.53;3.80;;;8.20;93.40;;;;;;6247642;22;20046;-84
2022/04/21 02:30:51;;;;;;;6.38;4.82;;;8.20;94.10;;;;;;6245630;23;20083;-83
2022/04/21 02:33:17;;;;;;;8.02;4.25;;;8.20;94.60;;;;;;6247241;22;20038;-86
2022/04/21 02:35:43;;;;;;;9.68;4.72;;;8.10;95.00;;;;;;6247564;22;20000;-85
2022/04/21 02:38:08;;;;;;;8.02;4.88;;;8.10;95.50;;;;;;6247717;22;20004;-84
2022/04/21 02:40:34;;;;;;;7.60;4.07;;;8.10;95.40;;;;;;6247578;22;20042;-86
2022/04/21 02:43:00;;;;;;;7.97;4.18;;;8.10;95.40;;;;;;6245980;23;20000;-84
2022/04/21 02:45:25;;;;;;;6.15;4.75;;;8.10;96.10;;;;;;6247405;22;20019;-84
2022/04/21 02:47:51;;;;;;;10.43;4.47;;;8.00;96.40;;;;;;6245746;23;20012;-85
2022/04/21 02:50:18;;;;;;;6.05;3.90;;;8.00;96.90;;;;;;6245266;23;20000;-84
2022/04/21 02:52:44;;;;;;;7.25;4.30;;;8.00;97.20;;;;;;6247319;23;20438;-89
2022/04/21 02:57:57;;;;;;;5.68;4.13;;;7.80;98.50;;;;;;6247040;23;20053;-82
2022/04/21 03:00:22;;;;;;;7.50;4.40;;;7.80;98.70;;;;;;6246329;22;19996;-85
2022/04/21 03:02:48;;;;;;;5.18;3.63;;;7.90;98.80;;;;;;6246256;22;20058;-86
2022/04/21 03:05:14;;;;;;;6.63;3.92;;;7.90;99.50;;;;;;6245408;23;20007;-85
2022/04/21 03:07:40;;;;;;;5.38;3.60;;;7.90;99.50;;;;;;6246920;22;20000;-85
2022/04/21 03:10:06;;;;;;;8.63;4.47;;;7.80;99.70;;;;;;6245298;23;20042;-84
2022/04/21 03:12:31;;;;;;;6.32;3.90;;;7.80;99.90;;;;;;6246671;22;20071;-84
2022/04/21 03:14:57;;;;;;;7.97;3.72;;;7.80;99.90;;;;;;6245526;23;20051;-86
2022/04/21 03:17:23;;;;;;;7.07;3.85;;;7.70;99.90;;;;;;6246861;22;20050;-86
2022/04/21 03:19:49;;;;;;;11.73;4.22;;;7.60;99.90;;;;;;6245240;23;20008;-85
2022/04/21 03:25:03;;;;;;;6.93;3.70;;;7.50;99.90;;;;;;6247222;23;20015;-85
2022/04/21 03:27:29;;;;;;;5.50;3.63;;;7.50;99.90;;;;;;6246355;23;20008;-84
2022/04/21 03:29:56;;;;;;;5.13;3.83;;;7.50;99.90;;;;;;6246076;23;20015;-86
2022/04/21 03:32:21;;;;;;;9.30;3.92;;;7.50;99.90;;;;;;6245736;23;20061;-85
2022/04/21 03:34:47;;;;;;;4.95;3.67;;;7.50;99.90;;;;;;6248569;22;20076;-85
2022/04/21 03:37:14;;;;;;;7.47;3.78;;;7.50;99.90;;;;;;6248195;22;20007;-85
2022/04/21 03:39:41;;;;;;;8.60;3.92;;;7.50;99.90;;;;;;6246491;23;20058;-85
2022/04/21 03:42:16;;;;;;;5.68;3.70;;;7.50;99.90;;;;;;6246206;23;20560;-85
2022/04/21 03:44:42;;;;;;;5.85;3.85;;;7.50;99.90;;;;;;6247706;22;20019;-85
2022/04/21 03:47:08;;;;;;;6.00;3.95;;;7.50;99.90;;;;;;6247405;22;20000;-85
2022/04/21 03:49:34;;;;;;;6.97;3.30;;;7.40;99.90;;;;;;6246843;22;20075;-85
2022/04/21 03:52:00;;;;;;;5.07;3.45;;;7.40;99.90;;;;;;6245066;23;20004;-86
2022/04/21 03:54:26;;;;;;;7.47;4.22;;;7.40;99.90;;;;;;6246537;22;20004;-85
2022/04/21 03:56:53;;;;;;;4.40;3.70;;;7.30;99.90;;;;;;6244623;23;20000;-86
2022/04/21 03:59:20;;;;;;;6.03;4.03;;;7.20;99.90;;;;;;6246758;22;20074;-86
2022/04/21 04:01:46;;;;;;;8.15;4.47;;;7.20;99.90;;;;;;6246698;22;20000;-86
2022/04/21 04:04:53;;;;;;;5.78;3.70;;;7.20;99.90;;;;;;6242218;22;20071;-91
2022/04/21 04:21:22;;;;;;;6.63;3.88;;;6.90;99.90;;;;;;6246154;23;20003;-90
2022/04/21 04:27:57;;;;;;;7.65;4.10;;;6.90;99.90;;;;;;6153673;23;20399;-91
2022/04/21 04:30:48;;;;;;;5.15;3.67;;;6.90;99.90;;;;;;6149814;23;20056;-89
2022/04/21 04:33:45;;;;;;;6.50;3.65;;;6.90;99.90;;;;;;6123202;23;20031;-90
2022/04/21 04:39:48;;;;;;;6.13;3.35;;;6.70;99.90;;;;;;6152602;23;20004;-89
2022/04/21 04:48:21;;;;;;;8.32;3.78;;;6.70;99.90;;;;;;6206756;23;20062;-90
2022/04/21 04:50:56;;;;;;;6.55;4.63;;;6.70;99.90;;;;;;6273052;22;20038;-94
2022/04/21 04:53:30;;;;;;;10.88;4.50;;;6.70;99.90;;;;;;6246671;22;20008;-91
2022/04/21 04:55:56;;;;;;;6.80;4.38;;;6.80;99.90;;;;;;6243759;23;20007;-90
2022/04/21 04:58:50;;;;;;;8.43;4.63;;;6.80;99.90;;;;;;6244992;22;20000;-91
2022/04/21 05:01:43;;;;;;;12.65;4.68;;;6.80;99.90;;;;;;6238267;22;20000;-87
2022/04/21 05:04:48;;;;;;;6.25;4.75;;;6.80;99.90;;;;;;6243425;23;20016;-88
2022/04/21 05:07:34;;;;;;;10.63;5.35;;;6.70;99.90;;;;;;6238868;23;20008;-89
2022/04/21 05:10:07;;;;;;;6.85;4.45;;;6.70;99.90;;;;;;6243840;22;20008;-89
2022/04/21 05:13:12;;;;;;;9.32;4.90;;;6.70;99.90;;;;;;6244076;23;20536;-89
2022/04/21 05:16:06;;;;;;;6.13;4.10;;;6.60;99.90;;;;;;6244391;22;20480;-89
2022/04/21 05:18:35;;;;;;;6.32;4.85;;;6.50;99.90;;;;;;6238094;23;20004;-90
2022/04/21 05:24:48;;;;;;;4.85;4.10;;;6.60;99.90;;;;;;6170404;22;20004;-90
2022/04/21 05:27:17;;;;;;;5.47;3.83;;;6.60;99.90;;;;;;6247612;22;20034;-89
2022/04/21 05:32:36;;;;;;;7.72;4.07;;;6.60;99.90;;;;;;6268018;22;20011;-89
2022/04/21 05:35:16;;;;;;;10.30;5.35;;;6.60;99.90;;;;;;6246854;23;20019;-89
2022/04/21 05:37:45;;;;;;;5.45;4.35;;;6.70;99.90;;;;;;6246335;23;20004;-88
2022/04/21 05:40:17;;;;;;;5.93;4.28;;;6.70;99.90;;;;;;6247289;22;20008;-88
2022/04/21 05:42:49;;;;;;;7.82;4.28;;;6.80;99.90;;;;;;6247813;23;20007;-87
2022/04/21 05:45:42;;;;;;;7.30;5.45;;;6.90;99.90;;;;;;6248223;22;20027;-88
2022/04/21 05:48:23;;;;;;;7.13;5.40;;;6.90;99.90;;;;;;6208456;23;20003;-88
2022/04/21 05:50:59;;;;;;;8.10;6.13;;;7.00;99.90;;;;;;6247205;22;20004;-87
2022/04/21 05:53:46;;;;;;;8.57;6.10;;;7.10;99.90;;;;;;6245075;23;20059;-87
2022/04/21 05:56:18;;;;;;;9.88;5.97;;;7.10;99.90;;;;;;6247525;22;19996;-87
2022/04/21 05:59:12;;;;;;;10.65;5.80;;;7.20;99.90;;;;;;6219032;23;20000;-88
2022/04/21 06:01:51;;;;;;;9.60;6.45;;;7.30;99.90;;;;;;6244835;23;20327;-88
2022/04/21 06:08:22;;;;;;;12.15;7.22;;;7.40;99.90;;;;;;6123436;23;20038;-88
2022/04/21 06:11:16;;;;;;;10.77;6.88;;;7.50;99.90;;;;;;6120191;23;20007;-88
2022/04/21 06:13:58;;;;;;;10.27;6.63;;;7.70;99.90;;;;;;6126569;23;20002;-87
2022/04/21 06:16:32;;;;;;;12.13;8.18;;;7.80;99.90;;;;;;6197803;23;20004;-89
2022/04/21 06:19:04;;;;;;;15.70;8.50;;;7.80;99.90;;;;;;6215337;23;20001;-89
2022/04/21 06:22:14;;;;;;;10.90;6.93;;;8.00;99.90;;;;;;6214439;23;20658;-88
2022/04/21 06:24:50;;;;;;;10.88;7.50;;;8.10;99.90;;;;;;6214835;23;20032;-88
2022/04/21 06:27:18;;;;;;;15.18;7.78;;;8.20;99.90;;;;;;6214982;23;20005;-90
2022/04/21 06:30:06;;;;;;;14.00;6.88;;;8.20;99.90;;;;;;6216316;23;20043;-90
2022/04/21 06:33:13;;;;;;;14.43;7.10;;;8.20;99.90;;;;;;6216110;23;20009;-90
2022/04/21 06:38:47;;;;;;;9.48;7.22;;;8.50;99.90;;;;;;6216364;23;20015;-89
2022/04/21 06:41:20;;;;;;;11.15;7.47;;;8.60;99.90;;;;;;6226122;23;20000;-89
2022/04/21 06:49:34;;;;;;;13.38;8.60;;;8.70;99.90;;;;;;6216648;23;20140;-87
2022/04/21 06:52:03;;;;;;;12.50;8.30;;;8.80;99.90;;;;;;6217145;23;20001;-88
2022/04/21 06:54:40;;;;;;;12.70;8.40;;;8.80;99.90;;;;;;6220632;23;20004;-88
2022/04/21 06:57:09;;;;;;;11.32;8.45;;;8.90;99.90;;;;;;6219838;23;20055;-86
2022/04/21 06:59:39;;;;;;;15.15;9.10;;;9.00;99.10;;;;;;6218560;23;20010;-87
2022/04/21 07:02:09;;;;;;;13.40;8.55;;;9.00;98.80;;;;;;6215220;23;20001;-88
2022/04/21 07:04:41;;;;;;;10.32;7.88;;;9.00;98.20;;;;;;6216848;23;20411;-87
2022/04/21 07:07:25;;;;;;;17.20;8.40;;;9.10;98.00;;;;;;6214140;23;20446;-87
2022/04/21 07:09:53;;;;;;;10.13;7.75;;;9.10;97.60;;;;;;6145526;23;20008;-87
2022/04/21 07:12:28;;;;;;;12.07;7.65;;;9.20;97.80;;;;;;6215122;23;20083;-88
2022/04/21 07:15:05;;;;;;;11.25;8.18;;;9.30;96.80;;;;;;6216757;23;20059;-87
2022/04/21 07:17:31;;;;;;;11.18;8.20;;;9.40;95.60;;;;;;6213932;23;20000;-88
2022/04/21 07:20:03;;;;;;;11.85;8.18;;;9.50;95.40;;;;;;6212080;23;20001;-87
2022/04/21 07:22:34;;;;;;;10.75;8.07;;;9.70;94.60;;;;;;6214718;23;20008;-87
2022/04/21 07:25:04;;;;;;;;;;;9.70;94.20;;;;;;6217282;23;20004;-87
2022/04/21 07:27:54;;;;;;;9.80;7.30;;;9.70;94.40;;;;;;6214829;23;19899;-87
2022/04/21 07:30:29;;;;;;;10.00;7.00;;;9.90;94.10;;;;;;6214738;23;20039;-87
2022/04/21 07:33:05;;;;;;;11.95;8.68;;;9.90;92.80;;;;;;6216898;23;20031;-87
2022/04/21 07:35:33;;;;;;;8.32;6.95;;;9.90;92.70;;;;;;6214322;23;20009;-89
2022/04/21 07:38:18;;;;;;;11.18;8.32;;;10.00;92.40;;;;;;6215261;23;20005;-92
2022/04/21 07:40:53;;;;;;;12.65;8.38;;;10.00;91.70;;;;;;6213295;23;20007;-91
2022/04/21 07:43:20;;;;;;;10.90;7.68;;;10.10;91.50;;;;;;6215600;23;20017;-89
2022/04/21 07:45:50;;;;;;;10.50;7.35;;;10.20;91.40;;;;;;6215448;23;20020;-92
2022/04/21 07:48:16;;;;;;;14.10;8.25;;;10.30;91.10;;;;;;6214036;23;20001;-90
2022/04/21 07:50:47;;;;;;;12.88;7.38;;;10.50;90.10;;;;;;6212986;23;20382;-89
2022/04/21 07:53:13;;;;;;;11.40;7.55;;;10.50;89.70;;;;;;6215227;23;20016;-88
2022/04/21 07:55:46;;;;;;;11.38;7.88;;;10.70;89.00;;;;;;6214925;23;20000;-91
2022/04/21 07:58:17;;;;;;;11.70;8.00;;;10.70;86.40;;;;;;6215073;23;20000;-89
2022/04/21 08:00:48;;;;;;;11.43;7.38;;;10.70;86.50;;;;;;6213188;23;20079;-91
2022/04/21 08:03:18;;;;;;;9.90;7.55;;;10.80;85.00;;;;;;6213384;23;20461;-89
2022/04/21 08:05:55;;;;;;;12.48;7.65;;;10.80;84.80;;;;;;6214896;23;20087;-91
2022/04/21 08:08:27;;;;;;;10.40;7.70;;;10.90;84.90;;;;;;6215137;23;20104;-91
2022/04/21 08:10:55;;;;;;;11.90;8.20;;;11.00;84.20;;;;;;6214359;23;20019;-89
2022/04/21 08:13:21;;;;;;;10.38;8.15;;;11.20;82.40;;;;;;6213103;23;20447;-90
2022/04/21 08:15:49;;;;;;;9.07;6.95;;;11.20;80.90;;;;;;6213876;23;20015;-91
2022/04/21 08:18:20;;;;;;;9.32;6.88;;;11.30;82.30;;;;;;6215349;23;19997;-91
2022/04/21 08:20:53;;;;;;;10.73;7.30;;;11.30;79.10;;;;;;6213725;23;20327;-90
2022/04/21 08:23:25;;;;;;;10.90;7.97;;;11.40;78.60;;;;;;6214161;23;20012;-90
2022/04/21 08:32:33;;;;;;;10.90;8.07;;;11.50;78.70;;;;;;6214992;23;20015;-91
2022/04/21 08:34:41;;;;;;;8.38;6.88;;;11.70;77.80;;;;;;6219853;23;20086;-91
2022/04/21 08:37:14;;;;;;;10.15;7.25;;;11.80;76.60;;;;;;6214283;23;20000;-91
2022/04/21 08:39:48;;;;;;;7.95;6.50;;;12.00;75.40;;;;;;6216635;23;20007;-92
2022/04/21 08:42:46;;;;;;;8.38;6.13;;;12.00;74.40;;;;;;6240021;23;19993;-92
2022/04/21 08:45:34;;;;;;;9.73;5.78;;;12.10;74.40;;;;;;6214275;23;20005;-93
2022/04/21 08:48:23;;;;;;;10.43;5.70;;;12.20;74.50;;;;;;6215088;23;20001;-92
2022/04/21 08:50:52;;;;;;;7.85;5.90;;;12.30;72.90;;;;;;6213966;23;20035;-90
2022/04/21 09:00:03;;;;;;;10.15;5.90;;;12.60;71.70;;;;;;6215904;23;20000;-90
2022/04/21 09:03:11;;;;;;;8.05;5.30;;;12.70;71.90;;;;;;6215034;23;20501;-91
2022/04/21 09:06:05;;;;;;;9.90;5.32;;;13.00;71.30;;;;;;6209017;23;20075;-90
2022/04/21 09:08:38;;;;;;;10.30;6.18;;;13.20;70.40;;;;;;6216237;23;20020;-90
2022/04/21 09:11:17;;;;;;;7.72;5.15;;;13.40;67.90;;;;;;6217190;23;19997;-89
2022/04/21 09:14:04;;;;;;;6.00;5.00;;;13.50;67.70;;;;;;6214642;23;20012;-91
2022/04/21 09:16:57;;;;;;;7.53;5.18;;;13.60;66.50;;;;;;6216724;23;20001;-91
2022/04/21 09:19:33;;;;;;;6.68;4.95;;;13.90;64.50;;;;;;6215060;23;20000;-92
2022/04/21 09:22:14;;;;;;;5.82;4.60;;;14.10;64.70;;;;;;6216442;23;20011;-92
2022/04/21 09:24:50;;;;;;;;;;;;;;;;;;;;;
2022/04/21 09:27:26;;;;;;;6.90;4.30;;;14.30;64.00;;;;;;6193433;23;19983;-92
2022/04/21 09:30:01;;;;;;;7.65;5.05;;;14.40;62.30;;;;;;6214824;23;20011;-91
2022/04/21 09:38:49;;;;;;;;;;;;;;;;;;;;;
2022/04/21 09:41:28;;;;;;;5.60;3.63;;;14.80;60.00;;;;;;6216599;23;20087;-89
2022/04/21 09:48:10;;;;;;;5.93;3.40;;;15.20;58.60;;;;;;6200730;23;20535;-91
2022/04/21 09:51:17;;;;;;;5.57;3.80;;;15.30;59.20;;;;;;6188103;23;20008;-92
2022/04/21 09:54:11;;;;;;;5.85;3.67;;;15.50;58.50;;;;;;6215374;23;20013;-91
2022/04/21 09:57:00;;;;;;;4.05;3.00;;;15.80;56.80;;;;;;6216359;23;20005;-90
2022/04/21 09:59:35;;;;;;;4.63;2.80;;;16.00;55.30;;;;;;6214316;23;20008;-89
2022/04/21 10:02:12;;;;;;;4.05;3.20;;;16.20;54.90;;;;;;6216346;23;20008;-89
2022/04/21 10:04:49;;;;;;;6.32;2.80;;;16.60;54.40;;;;;;6217253;23;20005;-89
2022/04/21 10:07:18;;;;;;;3.42;2.50;;;17.00;53.70;;;;;;6214118;23;20001;-90
2022/04/21 10:10:18;;;;;;;;;;;;;;;;;;;;;
2022/04/21 10:12:54;;;;;;;2.80;1.75;;;17.20;51.30;;;;;;6216354;23;20490;-91
2022/04/21 10:15:31;;;;;;;2.50;1.90;;;17.30;52.30;;;;;;6214242;23;20015;-88
2022/04/21 10:18:07;;;;;;;3.20;1.90;;;17.30;51.90;;;;;;6216205;23;20011;-89
2022/04/21 10:20:44;;;;;;;1.63;1.52;;;17.60;51.10;;;;;;6214803;23;19997;-88
2022/04/21 10:23:19;;;;;;;4.60;1.75;;;17.70;50.80;;;;;;6216164;23;20000;-89
2022/04/21 10:25:45;;;;;;;2.83;1.40;;;18.00;48.90;;;;;;6225059;23;20438;-88
2022/04/21 10:28:39;;;;;;;2.17;1.77;;;18.20;48.90;;;;;;6215838;23;20001;-88
2022/04/21 10:31:30;;;;;;;208.23;60.40;;;18.00;49.80;;;;;;6214230;23;20032;-90
2022/04/21 10:34:04;;;;;;;13.88;6.72;;;17.80;49.00;;;;;;6213858;23;20402;-88
2022/04/21 10:37:04;;;;;;;6.35;3.00;;;17.60;49.90;;;;;;6217787;23;20007;-88
2022/04/21 10:39:35;;;;;;;5.18;2.53;;;17.40;50.20;;;;;;6216285;23;20016;-89
2022/04/21 10:42:23;;;;;;;;;;;17.50;51.00;;;;;;6212744;23;20012;-90
2022/04/21 10:45:12;;;;;;;1.70;1.60;;;17.60;49.90;;;;;;6216211;23;19904;-90
2022/04/21 10:48:11;;;;;;;4.78;1.70;;;17.80;49.80;;;;;;6215546;23;20368;-90
2022/04/21 10:50:45;;;;;;;2.35;1.85;;;17.70;50.00;;;;;;6213635;23;20001;-90
2022/04/21 10:57:12;;;;;;;3.95;1.77;;;17.40;49.80;;;;;;6215845;23;20461;-89
2022/04/21 10:59:31;;;;;;;1.90;1.65;;;17.10;50.10;;;;;;6215476;23;20339;-90
2022/04/21 11:02:23;;;;;;;4.72;2.15;;;17.00;50.70;;;;;;6212893;23;20004;-87
2022/04/21 11:05:14;;;;;;;7.80;3.38;;;16.90;51.00;;;;;;6215267;23;20469;-86
2022/04/21 11:07:55;;;;;;;13.73;3.63;;;16.80;51.30;;;;;;6215087;23;20004;-86
2022/04/21 11:10:44;;;;;;;2.38;2.10;;;16.80;51.50;;;;;;6212856;23;20008;-86
2022/04/21 11:13:24;;;;;;;5.75;1.98;;;16.60;51.80;;;;;;6214858;23;20001;-86
2022/04/21 11:16:04;;;;;;;6.85;1.40;;;16.60;52.30;;;;;;6215226;23;20009;-86
2022/04/21 11:18:46;;;;;;;3.67;1.70;;;16.60;51.60;;;;;;6214408;23;20474;-86
2022/04/21 11:21:31;;;;;;;1.98;1.67;;;16.70;50.80;;;;;;6211753;23;20000;-86
2022/04/21 11:23:56;;;;;;;2.03;1.60;;;16.90;51.70;;;;;;6212159;23;20049;-86
2022/04/21 11:26:32;;;;;;;2.35;1.55;;;17.20;50.10;;;;;;6210877;23;20012;-87
2022/04/21 11:29:05;;;;;;;1.58;1.48;;;17.60;49.30;;;;;;6212115;23;20525;-87
2022/04/21 11:31:41;;;;;;;2.10;1.45;;;17.70;48.50;;;;;;6211642;23;20008;-86
2022/04/21 11:34:06;;;;;;;3.35;1.50;;;17.70;49.10;;;;;;6212737;23;20067;-86
2022/04/21 11:36:46;;;;;;;3.33;1.60;;;17.50;48.80;;;;;;6213450;23;20005;-87
2022/04/21 11:39:26;;;;;;;18.55;5.75;;;17.40;49.30;;;;;;6215224;23;20458;-86
2022/04/21 11:42:05;;;;;;;5.30;2.60;;;17.60;50.20;;;;;;6217271;23;20320;-86
2022/04/21 11:44:39;;;;;;;4.57;2.35;;;18.00;48.70;;;;;;6215391;23;20005;-86
2022/04/21 11:47:08;;;;;;;12.40;4.50;;;18.40;48.10;;;;;;6211014;23;20016;-86
2022/04/21 11:49:42;;;;;;;6.90;2.60;;;18.40;47.60;;;;;;6212888;23;20011;-85
2022/04/21 11:52:13;;;;;;;7.70;2.83;;;18.10;47.60;;;;;;6214138;23;20012;-86
2022/04/21 11:54:59;;;;;;;4.22;1.77;;;17.60;48.80;;;;;;6214862;23;20009;-86
2022/04/21 11:58:04;;;;;;;6.50;2.70;;;17.50;49.30;;;;;;6212566;23;20004;-86
2022/04/21 12:09:04;;;;;;;10.75;2.35;;;18.00;47.70;;;;;;6215251;23;20011;-87
2022/04/21 12:11:40;;;;;;;4.40;1.80;;;18.20;47.90;;;;;;6215448;23;20001;-86
2022/04/21 12:14:15;;;;;;;3.72;1.80;;;17.90;48.10;;;;;;6212964;23;20008;-87
2022/04/21 12:16:49;;;;;;;4.47;2.33;;;18.30;48.30;;;;;;6213526;23;20056;-87
2022/04/21 12:19:45;;;;;;;2.75;1.90;;;18.70;46.70;;;;;;6219492;23;19996;-88
2022/04/21 12:22:30;;;;;;;1.85;1.50;;;18.90;46.20;;;;;;6224789;23;20007;-87
2022/04/21 12:25:10;;;;;;;1.58;1.30;;;19.10;46.50;;;;;;6219620;23;20326;-87
2022/04/21 12:27:50;;;;;;;4.25;2.10;;;19.50;45.70;;;;;;6212969;23;20008;-90
2022/04/21 12:30:17;;;;;;;3.42;2.15;;;19.70;45.20;;;;;;6212916;23;20001;-88
2022/04/21 12:32:47;;;;;;;6.38;2.08;;;19.60;45.70;;;;;;6219296;23;20105;-88
2022/04/21 12:35:39;;;;;;;4.22;2.20;;;19.60;46.30;;;;;;6215300;23;20010;-87
2022/04/21 12:41:01;;;;;;;2.00;1.48;;;19.40;45.10;;;;;;6216112;23;20070;-86
2022/04/21 12:43:35;;;;;;;6.20;1.77;;;19.60;46.00;;;;;;6227743;23;20008;-86
2022/04/21 12:46:03;;;;;;;2.30;1.77;;;19.90;45.00;;;;;;6230224;23;20007;-85
2022/04/21 12:48:29;;;;;;;3.80;1.63;;;20.10;46.10;;;;;;6224849;23;20000;-86
2022/04/21 12:50:56;;;;;;;7.28;1.98;;;20.10;45.10;;;;;;6225435;23;20004;-86
2022/04/21 12:53:32;;;;;;;4.07;2.00;;;20.20;44.10;;;;;;6221552;23;20008;-86
2022/04/21 12:56:11;;;;;;;2.95;2.00;;;20.30;44.00;;;;;;6215721;23;20000;-87
2022/04/21 12:58:44;;;;;;;3.88;1.98;;;20.30;44.00;;;;;;6216062;23;20346;-86
2022/04/21 13:01:20;;;;;;;2.67;1.75;;;20.30;44.60;;;;;;6215084;23;19996;-86
2022/04/21 13:03:49;;;;;;;3.80;1.77;;;20.40;44.10;;;;;;6214012;23;20008;-86
2022/04/21 13:06:28;;;;;;;4.70;2.10;;;20.30;43.90;;;;;;6214326;23;20008;-86
2022/04/21 13:08:55;;;;;;;5.45;1.88;;;20.20;45.60;;;;;;6212219;23;20347;-87
2022/04/21 13:11:27;;;;;;;2.03;1.55;;;20.20;44.60;;;;;;6213853;23;20013;-85
2022/04/21 13:13:53;;;;;;;4.72;1.65;;;20.20;44.00;;;;;;6221682;23;20023;-87
2022/04/21 13:16:37;;;;;;;3.65;1.75;;;20.60;43.30;;;;;;6219072;23;20007;-86
2022/04/21 13:19:12;;;;;;;5.68;2.40;;;21.00;43.20;;;;;;6216893;23;20005;-85
2022/04/21 13:21:53;;;;;;;3.45;1.75;;;21.00;42.30;;;;;;6220006;23;20001;-86
2022/04/21 13:24:28;;;;;;;3.83;1.90;;;21.20;42.30;;;;;;6212602;23;20063;-86
2022/04/21 13:27:02;;;;;;;4.28;2.20;;;21.60;41.70;;;;;;6214045;23;20013;-87
2022/04/21 13:29:27;;;;;;;2.90;2.00;;;21.50;41.60;;;;;;6213281;23;20024;-86
2022/04/21 13:34:37;;;;;;;5.53;2.05;;;21.20;43.00;;;;;;6213405;23;20347;-87
2022/04/21 13:37:09;;;;;;;4.65;2.05;;;21.50;41.60;;;;;;6212058;23;20001;-86
2022/04/21 13:39:40;;;;;;;3.40;1.90;;;21.30;42.50;;;;;;6213684;23;20000;-86
2022/04/21 13:42:10;;;;;;;4.47;1.98;;;20.90;42.20;;;;;;6213956;23;20012;-88
2022/04/21 13:44:36;;;;;;;6.57;3.00;;;20.40;43.20;;;;;;6214868;23;20001;-86
2022/04/21 13:47:08;;;;;;;5.05;2.45;;;19.90;44.80;;;;;;6214538;23;20005;-86
2022/04/21 13:49:34;;;;;;;4.72;2.60;;;19.80;44.80;;;;;;6215916;23;20068;-86
2022/04/21 13:52:00;;;;;;;6.18;2.33;;;19.80;45.00;;;;;;6213415;23;20083;-86
2022/04/21 13:54:28;;;;;;;5.88;1.80;;;19.70;44.90;;;;;;6211456;23;20012;-86
2022/04/21 13:57:04;;;;;;;3.75;2.33;;;19.80;45.20;;;;;;6215265;23;20030;-87
2022/04/21 13:59:30;;;;;;;6.43;2.13;;;20.00;44.80;;;;;;6214032;23;20083;-86
2022/04/21 14:01:56;;;;;;;5.75;2.00;;;20.00;44.40;;;;;;6213369;23;20000;-86
2022/04/21 14:04:22;;;;;;;3.85;2.20;;;19.80;44.90;;;;;;6215351;23;20020;-86
2022/04/21 14:06:55;;;;;;;4.85;2.30;;;19.50;44.90;;;;;;6213205;23;20005;-86
2022/04/21 14:09:21;;;;;;;3.30;2.30;;;19.30;45.80;;;;;;6214111;23;20055;-85
2022/04/21 14:11:52;;;;;;;5.07;2.35;;;19.30;46.00;;;;;;6213751;23;20012;-85
2022/04/21 14:14:20;;;;;;;4.28;2.17;;;19.40;45.90;;;;;;6215223;23;20386;-86
2022/04/21 14:16:48;;;;;;;3.25;2.05;;;19.10;46.70;;;;;;6218072;23;20080;-86
2022/04/21 14:19:20;;;;;;;3.10;2.47;;;18.90;47.10;;;;;;6215508;23;20000;-85
2022/04/21 14:21:46;;;;;;;5.40;2.50;;;18.60;47.20;;;;;;6215272;23;20025;-86
2022/04/21 14:24:12;;;;;;;9.75;2.80;;;18.50;48.60;;;;;;6213762;23;20403;-85
2022/04/21 14:26:38;;;;;;;5.32;2.53;;;18.50;47.60;;;;;;6215526;23;20029;-86
2022/04/21 14:29:06;;;;;;;5.18;2.60;;;18.40;47.90;;;;;;6213730;23;20012;-86
2022/04/21 14:31:31;;;;;;;5.43;2.05;;;18.60;48.00;;;;;;6213143;23;20088;-86
2022/04/21 14:33:57;;;;;;;4.00;2.35;;;18.70;47.10;;;;;;6215268;23;20036;-86
2022/04/21 14:36:25;;;;;;;3.13;2.25;;;18.90;47.10;;;;;;6214727;23;20619;-86
2022/04/21 14:45:00;;;;;;;4.70;2.72;;;18.60;48.10;;;;;;6215781;23;20032;-86
2022/04/21 14:47:28;;;;;;;4.47;2.25;;;18.20;49.50;;;;;;6214083;23;20083;-85
2022/04/21 14:49:54;;;;;;;6.35;2.08;;;18.00;49.20;;;;;;6216965;23;20007;-85
2022/04/21 14:52:21;;;;;;;2.45;2.10;;;17.80;49.50;;;;;;6216970;23;20001;-86
2022/04/21 14:54:55;;;;;;;3.55;2.13;;;17.80;50.20;;;;;;6216850;23;20005;-86
2022/04/21 14:57:30;;;;;;;3.08;2.10;;;17.80;49.60;;;;;;6214958;23;20431;-86
2022/04/21 14:59:55;;;;;;;6.55;2.25;;;17.80;50.20;;;;;;6217922;23;20004;-86
2022/04/21 15:02:24;;;;;;;7.18;2.35;;;17.60;50.40;;;;;;6215694;23;20342;-88
2022/04/21 15:04:49;;;;;;;8.90;2.17;;;17.50;50.80;;;;;;6216603;23;20082;-87
2022/04/21 15:07:15;;;;;;;5.93;2.42;;;17.20;51.50;;;;;;6216964;23;20028;-87
2022/04/21 15:09:41;;;;;;;2.80;2.22;;;17.00;51.40;;;;;;6230708;23;20017;-86
2022/04/21 15:12:10;;;;;;;4.93;2.38;;;16.90;51.80;;;;;;6236008;23;20005;-85